sensor_id;sensor_type;location;lat;lon;timestamp;temperature;humidity
11067;DHT22;29763;50.904;5.530;2023-02-05T00:02:07;8.50;99.90
11067;DHT22;29763;50.904;5.530;2023-02-05T00:04:36;8.50;99.90
11067;DHT22;29763;50.904;5.530;2023-02-05T00:07:05;8.50;99.90
11067;DHT22;29763;50.904;5.530;2023-02-05T00:09:32;8.50;99.90
11067;DHT22;29763;50.904;5.530;2023-02-05T00:11:59;8.50;99.90
11067;DHT22;29763;50.904;5.530;2023-02-05T00:14:25;8.50;99.90
11067;DHT22;29763;50.904;5.530;2023-02-05T00:16:52;8.40;99.90
11067;DHT22;29763;50.904;5.530;2023-02-05T00:19:18;8.50;99.90
11067;DHT22;29763;50.904;5.530;2023-02-05T00:21:45;8.50;99.90
11067;DHT22;29763;50.904;5.530;2023-02-05T00:24:11;8.50;99.90
11067;DHT22;29763;50.904;5.530;2023-02-05T00:26:38;8.50;99.90
11067;DHT22;29763;50.904;5.530;2023-02-05T00:29:05;8.50;99.90
11067;DHT22;29763;50.904;5.530;2023-02-05T00:31:32;8.50;99.90
11067;DHT22;29763;50.904;5.530;2023-02-05T00:33:59;8.50;99.90
11067;DHT22;29763;50.904;5.530;2023-02-05T00:36:25;8.50;99.90
11067;DHT22;29763;50.904;5.530;2023-02-05T00:38:53;8.50;99.90
11067;DHT22;29763;50.904;5.530;2023-02-05T00:41:21;8.50;99.90
11067;DHT22;29763;50.904;5.530;2023-02-05T00:43:47;8.50;99.90
11067;DHT22;29763;50.904;5.530;2023-02-05T00:46:13;8.50;99.90
11067;DHT22;29763;50.904;5.530;2023-02-05T00:48:40;8.40;99.90
11067;DHT22;29763;50.904;5.530;2023-02-05T00:51:06;8.40;99.90
11067;DHT22;29763;50.904;5.530;2023-02-05T00:53:34;8.50;99.90
11067;DHT22;29763;50.904;5.530;2023-02-05T00:56:12;8.40;99.90
11067;DHT22;29763;50.904;5.530;2023-02-05T00:58:37;8.40;99.90
11067;DHT22;29763;50.904;5.530;2023-02-05T01:01:04;8.40;99.90
11067;DHT22;29763;50.904;5.530;2023-02-05T01:03:30;8.40;99.90
11067;DHT22;29763;50.904;5.530;2023-02-05T01:05:57;8.40;99.90
11067;DHT22;29763;50.904;5.530;2023-02-05T01:08:23;8.40;99.90
11067;DHT22;29763;50.904;5.530;2023-02-05T01:10:50;8.40;99.90
11067;DHT22;29763;50.904;5.530;2023-02-05T01:13:17;8.40;99.90
11067;DHT22;29763;50.904;5.530;2023-02-05T01:15:45;8.40;99.90
11067;DHT22;29763;50.904;5.530;2023-02-05T01:18:11;8.40;99.90
11067;DHT22;29763;50.904;5.530;2023-02-05T01:20:39;8.40;99.90
11067;DHT22;29763;50.904;5.530;2023-02-05T01:23:05;8.40;99.90
11067;DHT22;29763;50.904;5.530;2023-02-05T01:25:32;8.40;99.90
11067;DHT22;29763;50.904;5.530;2023-02-05T01:27:59;8.40;99.90
11067;DHT22;29763;50.904;5.530;2023-02-05T01:30:24;8.40;99.90
11067;DHT22;29763;50.904;5.530;2023-02-05T01:32:50;8.40;99.90
11067;DHT22;29763;50.904;5.530;2023-02-05T01:35:16;8.40;99.90
11067;DHT22;29763;50.904;5.530;2023-02-05T01:37:43;8.40;99.90
11067;DHT22;29763;50.904;5.530;2023-02-05T01:40:14;8.40;99.90
11067;DHT22;29763;50.904;5.530;2023-02-05T01:42:40;8.40;99.90
11067;DHT22;29763;50.904;5.530;2023-02-05T01:48:25;8.40;99.90
11067;DHT22;29763;50.904;5.530;2023-02-05T01:50:57;8.40;99.90
11067;DHT22;29763;50.904;5.530;2023-02-05T01:53:30;8.40;99.90
11067;DHT22;29763;50.904;5.530;2023-02-05T01:56:50;8.40;99.90
11067;DHT22;29763;50.904;5.530;2023-02-05T02:01:44;8.30;99.90
11067;DHT22;29763;50.904;5.530;2023-02-05T02:04:16;8.30;99.90
11067;DHT22;29763;50.904;5.530;2023-02-05T02:06:45;8.40;99.90
11067;DHT22;29763;50.904;5.530;2023-02-05T02:09:10;8.30;99.90
11067;DHT22;29763;50.904;5.530;2023-02-05T02:11:43;8.30;99.90
11067;DHT22;29763;50.904;5.530;2023-02-05T02:14:10;8.30;99.90
11067;DHT22;29763;50.904;5.530;2023-02-05T02:16:40;8.30;99.90
11067;DHT22;29763;50.904;5.530;2023-02-05T02:19:24;8.30;99.90
11067;DHT22;29763;50.904;5.530;2023-02-05T02:24:57;8.30;99.90
11067;DHT22;29763;50.904;5.530;2023-02-05T02:27:37;8.30;99.90
11067;DHT22;29763;50.904;5.530;2023-02-05T02:33:33;8.30;99.90
11067;DHT22;29763;50.904;5.530;2023-02-05T02:42:00;8.30;99.90
11067;DHT22;29763;50.904;5.530;2023-02-05T02:44:39;8.30;99.90
11067;DHT22;29763;50.904;5.530;2023-02-05T02:47:20;8.30;99.90
11067;DHT22;29763;50.904;5.530;2023-02-05T02:49:53;8.20;99.90
11067;DHT22;29763;50.904;5.530;2023-02-05T02:52:22;8.20;99.90
11067;DHT22;29763;50.904;5.530;2023-02-05T02:54:52;8.20;99.90
11067;DHT22;29763;50.904;5.530;2023-02-05T02:57:24;8.20;99.90
11067;DHT22;29763;50.904;5.530;2023-02-05T02:59:54;8.20;99.90
11067;DHT22;29763;50.904;5.530;2023-02-05T03:02:21;8.20;99.90
11067;DHT22;29763;50.904;5.530;2023-02-05T03:04:52;8.10;99.90
11067;DHT22;29763;50.904;5.530;2023-02-05T03:07:49;8.20;99.90
11067;DHT22;29763;50.904;5.530;2023-02-05T03:10:19;8.20;99.90
11067;DHT22;29763;50.904;5.530;2023-02-05T03:12:47;8.20;99.90
11067;DHT22;29763;50.904;5.530;2023-02-05T03:15:13;8.20;99.90
11067;DHT22;29763;50.904;5.530;2023-02-05T03:17:40;8.20;99.90
11067;DHT22;29763;50.904;5.530;2023-02-05T03:20:14;8.30;99.90
11067;DHT22;29763;50.904;5.530;2023-02-05T03:22:42;8.20;99.90
11067;DHT22;29763;50.904;5.530;2023-02-05T03:25:09;8.20;99.90
11067;DHT22;29763;50.904;5.530;2023-02-05T03:27:35;8.20;99.90
11067;DHT22;29763;50.904;5.530;2023-02-05T03:30:20;8.20;99.90
11067;DHT22;29763;50.904;5.530;2023-02-05T03:42:35;8.20;99.90
11067;DHT22;29763;50.904;5.530;2023-02-05T03:44:50;8.10;99.90
11067;DHT22;29763;50.904;5.530;2023-02-05T03:47:31;8.10;99.90
11067;DHT22;29763;50.904;5.530;2023-02-05T03:50:22;8.10;99.90
11067;DHT22;29763;50.904;5.530;2023-02-05T03:52:56;8.10;99.90
11067;DHT22;29763;50.904;5.530;2023-02-05T03:55:30;8.10;99.90
11067;DHT22;29763;50.904;5.530;2023-02-05T03:58:09;8.00;99.90
11067;DHT22;29763;50.904;5.530;2023-02-05T04:00:37;8.00;99.90
11067;DHT22;29763;50.904;5.530;2023-02-05T04:03:05;8.00;99.90
11067;DHT22;29763;50.904;5.530;2023-02-05T04:05:31;8.00;99.90
11067;DHT22;29763;50.904;5.530;2023-02-05T04:07:58;8.10;99.90
11067;DHT22;29763;50.904;5.530;2023-02-05T04:10:24;8.00;99.90
11067;DHT22;29763;50.904;5.530;2023-02-05T04:12:49;8.00;99.90
11067;DHT22;29763;50.904;5.530;2023-02-05T04:15:16;8.00;99.90
11067;DHT22;29763;50.904;5.530;2023-02-05T04:17:41;8.00;99.90
11067;DHT22;29763;50.904;5.530;2023-02-05T04:20:08;7.90;99.90
11067;DHT22;29763;50.904;5.530;2023-02-05T04:22:34;8.00;99.90
11067;DHT22;29763;50.904;5.530;2023-02-05T04:25:00;7.90;99.90
11067;DHT22;29763;50.904;5.530;2023-02-05T04:27:25;7.90;99.90
11067;DHT22;29763;50.904;5.530;2023-02-05T04:29:51;7.90;99.90
11067;DHT22;29763;50.904;5.530;2023-02-05T04:32:17;7.90;99.90
11067;DHT22;29763;50.904;5.530;2023-02-05T04:34:43;7.90;99.90
11067;DHT22;29763;50.904;5.530;2023-02-05T04:37:09;7.80;99.90
11067;DHT22;29763;50.904;5.530;2023-02-05T04:39:34;7.90;99.90
11067;DHT22;29763;50.904;5.530;2023-02-05T04:42:00;7.80;99.90
11067;DHT22;29763;50.904;5.530;2023-02-05T04:44:28;7.80;99.90
11067;DHT22;29763;50.904;5.530;2023-02-05T04:46:53;7.80;99.90
11067;DHT22;29763;50.904;5.530;2023-02-05T04:49:19;7.70;99.90
11067;DHT22;29763;50.904;5.530;2023-02-05T04:51:46;7.70;99.90
11067;DHT22;29763;50.904;5.530;2023-02-05T04:54:18;7.60;99.90
11067;DHT22;29763;50.904;5.530;2023-02-05T04:56:44;7.70;99.90
11067;DHT22;29763;50.904;5.530;2023-02-05T04:59:11;7.60;99.90
11067;DHT22;29763;50.904;5.530;2023-02-05T05:01:37;7.50;99.90
11067;DHT22;29763;50.904;5.530;2023-02-05T05:04:03;7.50;99.90
11067;DHT22;29763;50.904;5.530;2023-02-05T05:06:29;7.60;99.90
11067;DHT22;29763;50.904;5.530;2023-02-05T05:08:54;7.50;99.90
11067;DHT22;29763;50.904;5.530;2023-02-05T05:11:20;7.60;99.90
11067;DHT22;29763;50.904;5.530;2023-02-05T05:13:46;7.60;99.90
11067;DHT22;29763;50.904;5.530;2023-02-05T05:16:15;7.50;99.90
11067;DHT22;29763;50.904;5.530;2023-02-05T05:18:41;7.50;99.90
11067;DHT22;29763;50.904;5.530;2023-02-05T05:21:08;7.50;99.90
11067;DHT22;29763;50.904;5.530;2023-02-05T05:23:35;7.50;99.90
11067;DHT22;29763;50.904;5.530;2023-02-05T05:26:07;7.40;99.90
11067;DHT22;29763;50.904;5.530;2023-02-05T05:28:34;7.40;99.90
11067;DHT22;29763;50.904;5.530;2023-02-05T05:31:13;7.50;99.90
11067;DHT22;29763;50.904;5.530;2023-02-05T05:33:41;7.50;99.90
11067;DHT22;29763;50.904;5.530;2023-02-05T05:36:08;7.40;99.90
11067;DHT22;29763;50.904;5.530;2023-02-05T05:38:34;7.40;99.90
11067;DHT22;29763;50.904;5.530;2023-02-05T05:41:00;7.50;99.90
11067;DHT22;29763;50.904;5.530;2023-02-05T05:43:44;7.50;99.90
11067;DHT22;29763;50.904;5.530;2023-02-05T05:46:22;7.50;99.90
11067;DHT22;29763;50.904;5.530;2023-02-05T05:48:50;7.40;99.90
11067;DHT22;29763;50.904;5.530;2023-02-05T05:51:16;7.40;99.90
11067;DHT22;29763;50.904;5.530;2023-02-05T05:53:42;7.40;99.90
11067;DHT22;29763;50.904;5.530;2023-02-05T05:56:08;7.40;99.90
11067;DHT22;29763;50.904;5.530;2023-02-05T05:58:33;7.50;99.90
11067;DHT22;29763;50.904;5.530;2023-02-05T06:01:07;7.40;99.90
11067;DHT22;29763;50.904;5.530;2023-02-05T06:03:34;7.40;99.90
11067;DHT22;29763;50.904;5.530;2023-02-05T06:06:01;7.40;99.90
11067;DHT22;29763;50.904;5.530;2023-02-05T06:08:34;7.40;99.90
11067;DHT22;29763;50.904;5.530;2023-02-05T06:10:59;7.30;99.90
11067;DHT22;29763;50.904;5.530;2023-02-05T06:13:25;7.30;99.90
11067;DHT22;29763;50.904;5.530;2023-02-05T06:15:57;7.30;99.90
11067;DHT22;29763;50.904;5.530;2023-02-05T06:18:23;7.30;99.90
11067;DHT22;29763;50.904;5.530;2023-02-05T06:20:52;7.30;99.90
11067;DHT22;29763;50.904;5.530;2023-02-05T06:23:17;7.30;99.90
11067;DHT22;29763;50.904;5.530;2023-02-05T06:25:44;7.30;99.90
11067;DHT22;29763;50.904;5.530;2023-02-05T06:28:09;7.30;99.90
11067;DHT22;29763;50.904;5.530;2023-02-05T06:30:39;7.30;99.90
11067;DHT22;29763;50.904;5.530;2023-02-05T06:33:07;7.40;99.90
11067;DHT22;29763;50.904;5.530;2023-02-05T06:35:37;7.40;99.90
11067;DHT22;29763;50.904;5.530;2023-02-05T06:38:03;7.30;99.90
11067;DHT22;29763;50.904;5.530;2023-02-05T06:40:35;7.30;99.90
11067;DHT22;29763;50.904;5.530;2023-02-05T06:43:03;7.30;99.90
11067;DHT22;29763;50.904;5.530;2023-02-05T06:45:28;7.30;99.90
11067;DHT22;29763;50.904;5.530;2023-02-05T06:47:56;7.30;99.90
11067;DHT22;29763;50.904;5.530;2023-02-05T06:50:23;7.30;99.90
11067;DHT22;29763;50.904;5.530;2023-02-05T06:52:51;7.30;99.90
11067;DHT22;29763;50.904;5.530;2023-02-05T06:55:19;7.30;99.90
11067;DHT22;29763;50.904;5.530;2023-02-05T06:57:46;7.30;99.90
11067;DHT22;29763;50.904;5.530;2023-02-05T07:00:12;7.30;99.90
11067;DHT22;29763;50.904;5.530;2023-02-05T07:02:43;7.30;99.90
11067;DHT22;29763;50.904;5.530;2023-02-05T07:05:09;7.30;99.90
11067;DHT22;29763;50.904;5.530;2023-02-05T07:07:38;7.50;99.90
11067;DHT22;29763;50.904;5.530;2023-02-05T07:10:07;7.40;99.90
11067;DHT22;29763;50.904;5.530;2023-02-05T07:12:33;7.40;99.90
11067;DHT22;29763;50.904;5.530;2023-02-05T07:14:59;7.30;99.90
11067;DHT22;29763;50.904;5.530;2023-02-05T07:17:27;7.30;99.90
11067;DHT22;29763;50.904;5.530;2023-02-05T07:19:59;7.30;99.90
11067;DHT22;29763;50.904;5.530;2023-02-05T07:22:25;7.30;99.90
11067;DHT22;29763;50.904;5.530;2023-02-05T07:24:52;7.30;99.90
11067;DHT22;29763;50.904;5.530;2023-02-05T07:27:18;7.20;99.90
11067;DHT22;29763;50.904;5.530;2023-02-05T07:29:45;7.20;99.90
11067;DHT22;29763;50.904;5.530;2023-02-05T07:32:11;7.20;99.90
11067;DHT22;29763;50.904;5.530;2023-02-05T07:34:39;7.20;99.90
11067;DHT22;29763;50.904;5.530;2023-02-05T07:37:05;7.20;99.90
11067;DHT22;29763;50.904;5.530;2023-02-05T07:39:30;7.10;99.90
11067;DHT22;29763;50.904;5.530;2023-02-05T07:41:59;7.20;99.90
11067;DHT22;29763;50.904;5.530;2023-02-05T07:44:24;7.10;99.90
11067;DHT22;29763;50.904;5.530;2023-02-05T07:46:50;7.10;99.90
11067;DHT22;29763;50.904;5.530;2023-02-05T07:49:16;7.20;99.90
11067;DHT22;29763;50.904;5.530;2023-02-05T07:51:42;7.20;99.90
11067;DHT22;29763;50.904;5.530;2023-02-05T07:54:09;7.20;99.90
11067;DHT22;29763;50.904;5.530;2023-02-05T07:56:35;7.20;99.90
11067;DHT22;29763;50.904;5.530;2023-02-05T07:59:01;7.10;99.90
11067;DHT22;29763;50.904;5.530;2023-02-05T08:01:26;7.10;99.90
11067;DHT22;29763;50.904;5.530;2023-02-05T08:03:54;7.00;99.90
11067;DHT22;29763;50.904;5.530;2023-02-05T08:06:21;7.00;99.90
11067;DHT22;29763;50.904;5.530;2023-02-05T08:08:48;6.90;99.90
11067;DHT22;29763;50.904;5.530;2023-02-05T08:11:15;6.80;99.90
11067;DHT22;29763;50.904;5.530;2023-02-05T08:13:42;6.80;99.90
11067;DHT22;29763;50.904;5.530;2023-02-05T08:16:09;6.70;99.90
11067;DHT22;29763;50.904;5.530;2023-02-05T08:18:35;6.70;99.90
11067;DHT22;29763;50.904;5.530;2023-02-05T08:21:01;6.70;99.90
11067;DHT22;29763;50.904;5.530;2023-02-05T08:23:27;6.70;99.90
11067;DHT22;29763;50.904;5.530;2023-02-05T08:25:57;6.70;99.90
11067;DHT22;29763;50.904;5.530;2023-02-05T08:28:24;6.70;99.90
11067;DHT22;29763;50.904;5.530;2023-02-05T08:30:52;6.70;99.90
11067;DHT22;29763;50.904;5.530;2023-02-05T08:33:17;6.70;99.90
11067;DHT22;29763;50.904;5.530;2023-02-05T08:35:43;6.70;99.90
11067;DHT22;29763;50.904;5.530;2023-02-05T08:38:09;6.80;99.90
11067;DHT22;29763;50.904;5.530;2023-02-05T08:40:37;6.90;99.90
11067;DHT22;29763;50.904;5.530;2023-02-05T08:43:02;7.00;99.90
11067;DHT22;29763;50.904;5.530;2023-02-05T08:45:30;7.10;99.90
11067;DHT22;29763;50.904;5.530;2023-02-05T08:47:56;7.10;99.90
11067;DHT22;29763;50.904;5.530;2023-02-05T08:50:22;7.00;99.90
11067;DHT22;29763;50.904;5.530;2023-02-05T08:52:48;7.00;99.90
11067;DHT22;29763;50.904;5.530;2023-02-05T08:55:14;7.00;99.90
11067;DHT22;29763;50.904;5.530;2023-02-05T08:57:44;7.10;99.90
11067;DHT22;29763;50.904;5.530;2023-02-05T09:00:12;7.20;99.90
11067;DHT22;29763;50.904;5.530;2023-02-05T09:02:40;7.20;99.90
11067;DHT22;29763;50.904;5.530;2023-02-05T09:05:06;7.30;99.90
11067;DHT22;29763;50.904;5.530;2023-02-05T09:07:36;7.20;99.90
11067;DHT22;29763;50.904;5.530;2023-02-05T09:10:02;7.10;99.90
11067;DHT22;29763;50.904;5.530;2023-02-05T09:12:30;7.00;99.90
11067;DHT22;29763;50.904;5.530;2023-02-05T09:14:56;7.00;99.90
11067;DHT22;29763;50.904;5.530;2023-02-05T09:17:22;7.00;99.90
11067;DHT22;29763;50.904;5.530;2023-02-05T09:19:47;7.00;99.90
11067;DHT22;29763;50.904;5.530;2023-02-05T09:22:13;7.10;99.90
11067;DHT22;29763;50.904;5.530;2023-02-05T09:24:42;7.20;99.90
11067;DHT22;29763;50.904;5.530;2023-02-05T09:27:07;7.20;99.90
11067;DHT22;29763;50.904;5.530;2023-02-05T09:29:40;7.20;99.90
11067;DHT22;29763;50.904;5.530;2023-02-05T09:32:07;7.30;99.90
11067;DHT22;29763;50.904;5.530;2023-02-05T09:34:33;7.30;99.90
11067;DHT22;29763;50.904;5.530;2023-02-05T09:36:58;7.20;99.90
11067;DHT22;29763;50.904;5.530;2023-02-05T09:39:24;7.10;99.90
11067;DHT22;29763;50.904;5.530;2023-02-05T09:42:00;7.00;99.90
11067;DHT22;29763;50.904;5.530;2023-02-05T09:47:33;7.10;99.90
11067;DHT22;29763;50.904;5.530;2023-02-05T09:50:16;7.00;99.90
11067;DHT22;29763;50.904;5.530;2023-02-05T09:52:50;7.00;99.90
11067;DHT22;29763;50.904;5.530;2023-02-05T09:58:06;7.20;99.90
11067;DHT22;29763;50.904;5.530;2023-02-05T10:00:42;7.20;99.90
11067;DHT22;29763;50.904;5.530;2023-02-05T10:24:01;7.50;99.90
11067;DHT22;29763;50.904;5.530;2023-02-05T10:26:52;7.60;99.90
11067;DHT22;29763;50.904;5.530;2023-02-05T10:34:54;7.90;99.90
11067;DHT22;29763;50.904;5.530;2023-02-05T10:37:35;8.00;99.90
11067;DHT22;29763;50.904;5.530;2023-02-05T10:43:09;7.80;99.90
11067;DHT22;29763;50.904;5.530;2023-02-05T10:45:29;7.80;99.90
11067;DHT22;29763;50.904;5.530;2023-02-05T10:51:09;7.80;99.90
11067;DHT22;29763;50.904;5.530;2023-02-05T10:53:34;7.80;99.90
11067;DHT22;29763;50.904;5.530;2023-02-05T10:56:02;7.80;99.90
11067;DHT22;29763;50.904;5.530;2023-02-05T10:58:38;7.90;99.90
11067;DHT22;29763;50.904;5.530;2023-02-05T11:01:16;7.90;99.90
11067;DHT22;29763;50.904;5.530;2023-02-05T11:06:41;7.90;99.90
11067;DHT22;29763;50.904;5.530;2023-02-05T11:12:16;8.30;99.90
11067;DHT22;29763;50.904;5.530;2023-02-05T11:14:45;8.60;99.90
11067;DHT22;29763;50.904;5.530;2023-02-05T11:17:22;8.60;99.90
11067;DHT22;29763;50.904;5.530;2023-02-05T11:19:59;8.60;99.90
11067;DHT22;29763;50.904;5.530;2023-02-05T11:22:26;8.50;99.90
11067;DHT22;29763;50.904;5.530;2023-02-05T11:25:06;8.40;99.90
11067;DHT22;29763;50.904;5.530;2023-02-05T11:27:33;8.30;99.90
11067;DHT22;29763;50.904;5.530;2023-02-05T11:30:33;8.40;99.90
11067;DHT22;29763;50.904;5.530;2023-02-05T11:36:06;8.50;99.90
11067;DHT22;29763;50.904;5.530;2023-02-05T11:38:45;8.60;99.90
11067;DHT22;29763;50.904;5.530;2023-02-05T11:41:24;8.70;99.90
11067;DHT22;29763;50.904;5.530;2023-02-05T11:43:51;9.10;99.90
11067;DHT22;29763;50.904;5.530;2023-02-05T11:46:20;9.40;99.90
11067;DHT22;29763;50.904;5.530;2023-02-05T11:48:58;9.40;99.90
11067;DHT22;29763;50.904;5.530;2023-02-05T11:51:43;9.40;99.90
11067;DHT22;29763;50.904;5.530;2023-02-05T11:59:26;8.70;99.90
11067;DHT22;29763;50.904;5.530;2023-02-05T12:01:52;8.60;99.90
11067;DHT22;29763;50.904;5.530;2023-02-05T12:04:25;8.30;99.90
11067;DHT22;29763;50.904;5.530;2023-02-05T12:06:56;8.30;99.90
11067;DHT22;29763;50.904;5.530;2023-02-05T12:09:24;8.30;99.90
11067;DHT22;29763;50.904;5.530;2023-02-05T12:12:03;8.30;99.90
11067;DHT22;29763;50.904;5.530;2023-02-05T12:15:11;8.20;99.90
11067;DHT22;29763;50.904;5.530;2023-02-05T12:20:49;8.20;99.90
11067;DHT22;29763;50.904;5.530;2023-02-05T12:29:23;8.30;99.90
11067;DHT22;29763;50.904;5.530;2023-02-05T12:37:32;8.30;99.90
11067;DHT22;29763;50.904;5.530;2023-02-05T12:40:12;8.30;99.90
11067;DHT22;29763;50.904;5.530;2023-02-05T12:51:23;8.20;99.90
11067;DHT22;29763;50.904;5.530;2023-02-05T13:02:22;8.10;99.90
11067;DHT22;29763;50.904;5.530;2023-02-05T13:07:44;8.10;99.90
11067;DHT22;29763;50.904;5.530;2023-02-05T13:10:23;8.10;99.90
11067;DHT22;29763;50.904;5.530;2023-02-05T13:13:05;8.10;99.90
11067;DHT22;29763;50.904;5.530;2023-02-05T13:15:38;8.20;99.90
11067;DHT22;29763;50.904;5.530;2023-02-05T13:18:21;8.20;99.90
11067;DHT22;29763;50.904;5.530;2023-02-05T13:20:55;8.30;99.90
11067;DHT22;29763;50.904;5.530;2023-02-05T13:23:42;8.30;99.90
11067;DHT22;29763;50.904;5.530;2023-02-05T13:26:39;8.50;99.90
11067;DHT22;29763;50.904;5.530;2023-02-05T13:29:28;8.50;99.90
11067;DHT22;29763;50.904;5.530;2023-02-05T13:32:03;8.50;99.90
11067;DHT22;29763;50.904;5.530;2023-02-05T13:34:31;8.50;99.90
11067;DHT22;29763;50.904;5.530;2023-02-05T13:59:02;8.70;99.90
11067;DHT22;29763;50.904;5.530;2023-02-05T14:01:42;8.70;99.90
11067;DHT22;29763;50.904;5.530;2023-02-05T14:07:04;8.70;99.90
11067;DHT22;29763;50.904;5.530;2023-02-05T14:09:40;8.70;99.90
11067;DHT22;29763;50.904;5.530;2023-02-05T14:12:21;8.60;99.90
11067;DHT22;29763;50.904;5.530;2023-02-05T14:20:03;8.60;99.90
11067;DHT22;29763;50.904;5.530;2023-02-05T14:22:40;8.60;99.90
11067;DHT22;29763;50.904;5.530;2023-02-05T14:30:55;8.60;99.90
11067;DHT22;29763;50.904;5.530;2023-02-05T14:33:36;8.60;99.90
11067;DHT22;29763;50.904;5.530;2023-02-05T14:41:24;8.40;99.90
11067;DHT22;29763;50.904;5.530;2023-02-05T14:52:26;8.40;99.90
11067;DHT22;29763;50.904;5.530;2023-02-05T14:54:58;8.40;99.90
11067;DHT22;29763;50.904;5.530;2023-02-05T14:57:47;8.50;99.90
11067;DHT22;29763;50.904;5.530;2023-02-05T15:08:15;8.40;99.90
11067;DHT22;29763;50.904;5.530;2023-02-05T15:19:49;7.60;99.90
11067;DHT22;29763;50.904;5.530;2023-02-05T15:22:39;7.50;99.90
11067;DHT22;29763;50.904;5.530;2023-02-05T15:25:30;7.40;99.90
11067;DHT22;29763;50.904;5.530;2023-02-05T15:28:06;7.30;99.90
11067;DHT22;29763;50.904;5.530;2023-02-05T15:30:46;7.20;99.90
11067;DHT22;29763;50.904;5.530;2023-02-05T15:33:23;7.10;99.90
11067;DHT22;29763;50.904;5.530;2023-02-05T15:35:50;7.10;99.90
11067;DHT22;29763;50.904;5.530;2023-02-05T15:39:08;7.00;99.90
11067;DHT22;29763;50.904;5.530;2023-02-05T15:41:14;7.00;99.90
11067;DHT22;29763;50.904;5.530;2023-02-05T15:43:56;7.00;99.90
11067;DHT22;29763;50.904;5.530;2023-02-05T15:46:22;7.00;99.90
11067;DHT22;29763;50.904;5.530;2023-02-05T15:48:48;6.90;99.90
11067;DHT22;29763;50.904;5.530;2023-02-05T15:54:25;6.80;99.90
11067;DHT22;29763;50.904;5.530;2023-02-05T15:56:52;6.70;99.90
11067;DHT22;29763;50.904;5.530;2023-02-05T15:59:25;6.80;99.90
11067;DHT22;29763;50.904;5.530;2023-02-05T16:02:14;6.80;99.90
11067;DHT22;29763;50.904;5.530;2023-02-05T16:04:43;6.80;99.90
11067;DHT22;29763;50.904;5.530;2023-02-05T16:07:21;6.80;99.90
11067;DHT22;29763;50.904;5.530;2023-02-05T16:09:54;6.80;99.90
11067;DHT22;29763;50.904;5.530;2023-02-05T16:12:21;6.90;99.90
11067;DHT22;29763;50.904;5.530;2023-02-05T16:15:00;6.90;99.90
11067;DHT22;29763;50.904;5.530;2023-02-05T16:17:44;7.00;99.90
11067;DHT22;29763;50.904;5.530;2023-02-05T16:20:30;7.00;99.90
11067;DHT22;29763;50.904;5.530;2023-02-05T16:23:03;7.00;99.90
11067;DHT22;29763;50.904;5.530;2023-02-05T16:25:40;7.00;99.90
11067;DHT22;29763;50.904;5.530;2023-02-05T16:28:21;7.00;99.90
11067;DHT22;29763;50.904;5.530;2023-02-05T16:30:53;6.90;99.90
11067;DHT22;29763;50.904;5.530;2023-02-05T16:33:44;6.90;99.90
11067;DHT22;29763;50.904;5.530;2023-02-05T16:36:20;6.80;99.90
11067;DHT22;29763;50.904;5.530;2023-02-05T16:39:00;6.80;99.90
11067;DHT22;29763;50.904;5.530;2023-02-05T16:41:30;6.80;99.90
11067;DHT22;29763;50.904;5.530;2023-02-05T16:43:59;6.80;99.90
11067;DHT22;29763;50.904;5.530;2023-02-05T16:46:29;6.80;99.90
11067;DHT22;29763;50.904;5.530;2023-02-05T16:49:00;6.90;99.90
11067;DHT22;29763;50.904;5.530;2023-02-05T16:51:32;6.90;99.90
11067;DHT22;29763;50.904;5.530;2023-02-05T16:54:23;6.90;99.90
11067;DHT22;29763;50.904;5.530;2023-02-05T16:57:06;6.90;99.90
11067;DHT22;29763;50.904;5.530;2023-02-05T17:02:37;6.70;99.90
11067;DHT22;29763;50.904;5.530;2023-02-05T17:05:21;6.70;99.90
11067;DHT22;29763;50.904;5.530;2023-02-05T17:08:09;6.60;99.90
11067;DHT22;29763;50.904;5.530;2023-02-05T17:10:51;6.60;99.90
11067;DHT22;29763;50.904;5.530;2023-02-05T17:16:26;6.60;99.90
11067;DHT22;29763;50.904;5.530;2023-02-05T17:18:57;6.50;99.90
11067;DHT22;29763;50.904;5.530;2023-02-05T17:21:33;6.50;99.90
11067;DHT22;29763;50.904;5.530;2023-02-05T17:24:00;6.50;99.90
11067;DHT22;29763;50.904;5.530;2023-02-05T17:26:32;6.50;99.90
11067;DHT22;29763;50.904;5.530;2023-02-05T17:29:00;6.40;99.90
11067;DHT22;29763;50.904;5.530;2023-02-05T17:31:27;6.40;99.90
11067;DHT22;29763;50.904;5.530;2023-02-05T17:33:57;6.40;99.90
11067;DHT22;29763;50.904;5.530;2023-02-05T17:36:23;6.40;99.90
11067;DHT22;29763;50.904;5.530;2023-02-05T17:38:50;6.40;99.90
11067;DHT22;29763;50.904;5.530;2023-02-05T17:41:22;6.30;99.90
11067;DHT22;29763;50.904;5.530;2023-02-05T17:44:12;6.30;99.90
11067;DHT22;29763;50.904;5.530;2023-02-05T17:46:38;6.30;99.90
11067;DHT22;29763;50.904;5.530;2023-02-05T17:49:05;6.30;99.90
11067;DHT22;29763;50.904;5.530;2023-02-05T17:51:31;6.20;99.90
11067;DHT22;29763;50.904;5.530;2023-02-05T17:53:56;6.10;99.90
11067;DHT22;29763;50.904;5.530;2023-02-05T17:56:24;6.10;99.90
11067;DHT22;29763;50.904;5.530;2023-02-05T17:58:50;6.10;99.90
11067;DHT22;29763;50.904;5.530;2023-02-05T18:01:17;6.00;99.90
11067;DHT22;29763;50.904;5.530;2023-02-05T18:03:45;5.90;99.90
11067;DHT22;29763;50.904;5.530;2023-02-05T18:06:13;5.90;99.90
11067;DHT22;29763;50.904;5.530;2023-02-05T18:08:40;5.90;99.90
11067;DHT22;29763;50.904;5.530;2023-02-05T18:11:07;5.90;99.90
11067;DHT22;29763;50.904;5.530;2023-02-05T18:13:33;5.80;99.90
11067;DHT22;29763;50.904;5.530;2023-02-05T18:16:00;5.80;99.90
11067;DHT22;29763;50.904;5.530;2023-02-05T18:18:33;5.80;99.90
11067;DHT22;29763;50.904;5.530;2023-02-05T18:20:59;5.80;99.90
11067;DHT22;29763;50.904;5.530;2023-02-05T18:23:25;5.70;99.90
11067;DHT22;29763;50.904;5.530;2023-02-05T18:25:53;5.70;99.90
11067;DHT22;29763;50.904;5.530;2023-02-05T18:28:19;5.70;99.90
11067;DHT22;29763;50.904;5.530;2023-02-05T18:30:54;5.60;99.90
11067;DHT22;29763;50.904;5.530;2023-02-05T18:33:20;5.60;99.90
11067;DHT22;29763;50.904;5.530;2023-02-05T18:35:45;5.60;99.90
11067;DHT22;29763;50.904;5.530;2023-02-05T18:38:11;5.50;99.90
11067;DHT22;29763;50.904;5.530;2023-02-05T18:40:37;5.50;99.90
11067;DHT22;29763;50.904;5.530;2023-02-05T18:43:24;5.40;99.90
11067;DHT22;29763;50.904;5.530;2023-02-05T18:46:16;5.40;99.90
11067;DHT22;29763;50.904;5.530;2023-02-05T18:48:42;5.30;99.90
11067;DHT22;29763;50.904;5.530;2023-02-05T18:51:31;5.30;99.90
11067;DHT22;29763;50.904;5.530;2023-02-05T18:54:04;5.20;99.90
11067;DHT22;29763;50.904;5.530;2023-02-05T18:56:36;5.30;99.90
11067;DHT22;29763;50.904;5.530;2023-02-05T18:59:05;5.20;99.90
11067;DHT22;29763;50.904;5.530;2023-02-05T19:01:34;5.20;99.90
11067;DHT22;29763;50.904;5.530;2023-02-05T19:04:02;5.20;99.90
11067;DHT22;29763;50.904;5.530;2023-02-05T19:06:29;5.10;99.90
11067;DHT22;29763;50.904;5.530;2023-02-05T19:09:02;5.20;99.90
11067;DHT22;29763;50.904;5.530;2023-02-05T19:11:29;5.20;99.90
11067;DHT22;29763;50.904;5.530;2023-02-05T19:14:04;5.10;99.90
11067;DHT22;29763;50.904;5.530;2023-02-05T19:16:31;5.00;99.90
11067;DHT22;29763;50.904;5.530;2023-02-05T19:18:57;5.00;99.90